sensor_id;sensor_type;location;lat;lon;timestamp;temperature;humidity
73750;SHT30;62058;48.406;-4.514;2023-02-15T00:01:34;11.82;76.71
73750;SHT30;62058;48.406;-4.514;2023-02-15T00:04:00;11.84;76.53
73750;SHT30;62058;48.406;-4.514;2023-02-15T00:06:26;11.79;77.23
73750;SHT30;62058;48.406;-4.514;2023-02-15T00:08:51;11.78;77.47
73750;SHT30;62058;48.406;-4.514;2023-02-15T00:11:18;11.77;77.20
73750;SHT30;62058;48.406;-4.514;2023-02-15T00:14:07;11.77;77.16
73750;SHT30;62058;48.406;-4.514;2023-02-15T00:16:33;11.75;76.50
73750;SHT30;62058;48.406;-4.514;2023-02-15T00:18:58;11.70;78.26
73750;SHT30;62058;48.406;-4.514;2023-02-15T00:21:30;11.70;79.26
73750;SHT30;62058;48.406;-4.514;2023-02-15T00:23:58;11.70;78.08
73750;SHT30;62058;48.406;-4.514;2023-02-15T00:26:24;11.73;76.71
73750;SHT30;62058;48.406;-4.514;2023-02-15T00:28:49;11.70;78.14
73750;SHT30;62058;48.406;-4.514;2023-02-15T00:31:15;11.67;77.77
73750;SHT30;62058;48.406;-4.514;2023-02-15T00:33:40;11.67;76.40
73750;SHT30;62058;48.406;-4.514;2023-02-15T00:36:07;11.67;77.56
73750;SHT30;62058;48.406;-4.514;2023-02-15T00:38:34;11.67;77.05
73750;SHT30;62058;48.406;-4.514;2023-02-15T00:41:02;11.65;77.80
73750;SHT30;62058;48.406;-4.514;2023-02-15T00:43:28;11.63;76.82
73750;SHT30;62058;48.406;-4.514;2023-02-15T00:45:54;11.64;77.88
73750;SHT30;62058;48.406;-4.514;2023-02-15T00:48:21;11.61;76.95
73750;SHT30;62058;48.406;-4.514;2023-02-15T00:50:49;11.63;78.28
73750;SHT30;62058;48.406;-4.514;2023-02-15T00:53:15;11.58;79.29
73750;SHT30;62058;48.406;-4.514;2023-02-15T00:55:41;11.61;76.74
73750;SHT30;62058;48.406;-4.514;2023-02-15T00:58:07;11.57;76.82
73750;SHT30;62058;48.406;-4.514;2023-02-15T01:00:33;11.55;78.09
73750;SHT30;62058;48.406;-4.514;2023-02-15T01:02:58;11.54;77.60
73750;SHT30;62058;48.406;-4.514;2023-02-15T01:05:24;11.54;77.79
73750;SHT30;62058;48.406;-4.514;2023-02-15T01:07:49;11.55;78.24
73750;SHT30;62058;48.406;-4.514;2023-02-15T01:10:15;11.53;78.20
73750;SHT30;62058;48.406;-4.514;2023-02-15T01:12:40;11.53;77.84
73750;SHT30;62058;48.406;-4.514;2023-02-15T01:15:06;11.51;77.97
73750;SHT30;62058;48.406;-4.514;2023-02-15T01:17:32;11.51;78.71
73750;SHT30;62058;48.406;-4.514;2023-02-15T01:19:57;11.50;77.50
73750;SHT30;62058;48.406;-4.514;2023-02-15T01:22:22;11.48;78.40
73750;SHT30;62058;48.406;-4.514;2023-02-15T01:24:51;11.47;77.05
73750;SHT30;62058;48.406;-4.514;2023-02-15T01:27:16;11.45;79.06
73750;SHT30;62058;48.406;-4.514;2023-02-15T01:29:42;11.45;78.87
73750;SHT30;62058;48.406;-4.514;2023-02-15T01:32:07;11.44;78.25
73750;SHT30;62058;48.406;-4.514;2023-02-15T01:34:33;11.41;77.49
73750;SHT30;62058;48.406;-4.514;2023-02-15T01:36:58;11.43;78.41
73750;SHT30;62058;48.406;-4.514;2023-02-15T01:39:24;11.43;78.62
73750;SHT30;62058;48.406;-4.514;2023-02-15T01:41:49;11.41;78.76
73750;SHT30;62058;48.406;-4.514;2023-02-15T01:44:51;11.41;77.91
73750;SHT30;62058;48.406;-4.514;2023-02-15T01:47:41;11.40;79.28
73750;SHT30;62058;48.406;-4.514;2023-02-15T01:52:53;11.37;77.58
73750;SHT30;62058;48.406;-4.514;2023-02-15T01:55:22;11.35;78.90
73750;SHT30;62058;48.406;-4.514;2023-02-15T01:57:49;11.35;78.08
73750;SHT30;62058;48.406;-4.514;2023-02-15T02:00:16;11.34;80.61
73750;SHT30;62058;48.406;-4.514;2023-02-15T02:02:44;11.34;78.72
73750;SHT30;62058;48.406;-4.514;2023-02-15T02:05:10;11.31;79.61
73750;SHT30;62058;48.406;-4.514;2023-02-15T02:07:39;11.30;78.64
73750;SHT30;62058;48.406;-4.514;2023-02-15T02:10:09;11.28;78.74
73750;SHT30;62058;48.406;-4.514;2023-02-15T02:12:37;11.28;78.35
73750;SHT30;62058;48.406;-4.514;2023-02-15T02:15:04;11.26;79.24
73750;SHT30;62058;48.406;-4.514;2023-02-15T02:42:11;11.14;79.35
73750;SHT30;62058;48.406;-4.514;2023-02-15T02:44:49;11.10;78.56
73750;SHT30;62058;48.406;-4.514;2023-02-15T02:47:18;11.12;79.18
73750;SHT30;62058;48.406;-4.514;2023-02-15T02:49:45;11.13;79.82
73750;SHT30;62058;48.406;-4.514;2023-02-15T02:55:04;11.17;78.74
73750;SHT30;62058;48.406;-4.514;2023-02-15T02:57:32;11.13;79.41
73750;SHT30;62058;48.406;-4.514;2023-02-15T03:00:02;11.13;79.64
73750;SHT30;62058;48.406;-4.514;2023-02-15T03:02:32;11.12;80.00
73750;SHT30;62058;48.406;-4.514;2023-02-15T03:05:03;11.14;79.18
73750;SHT30;62058;48.406;-4.514;2023-02-15T03:07:33;11.10;80.31
73750;SHT30;62058;48.406;-4.514;2023-02-15T03:10:04;11.12;80.26
73750;SHT30;62058;48.406;-4.514;2023-02-15T03:12:34;11.07;80.58
73750;SHT30;62058;48.406;-4.514;2023-02-15T03:15:10;11.10;80.23
73750;SHT30;62058;48.406;-4.514;2023-02-15T03:17:42;11.06;79.67
73750;SHT30;62058;48.406;-4.514;2023-02-15T03:20:17;11.06;80.04
73750;SHT30;62058;48.406;-4.514;2023-02-15T03:22:51;11.02;80.07
73750;SHT30;62058;48.406;-4.514;2023-02-15T03:25:25;11.02;79.00
73750;SHT30;62058;48.406;-4.514;2023-02-15T03:27:58;10.99;79.80
73750;SHT30;62058;48.406;-4.514;2023-02-15T03:30:25;10.99;80.48
73750;SHT30;62058;48.406;-4.514;2023-02-15T03:32:52;10.99;80.84
73750;SHT30;62058;48.406;-4.514;2023-02-15T03:35:21;10.96;80.46
73750;SHT30;62058;48.406;-4.514;2023-02-15T03:37:51;10.92;79.99
73750;SHT30;62058;48.406;-4.514;2023-02-15T03:40:27;10.95;79.79
73750;SHT30;62058;48.406;-4.514;2023-02-15T03:43:21;10.92;80.79
73750;SHT30;62058;48.406;-4.514;2023-02-15T03:45:50;10.93;79.99
73750;SHT30;62058;48.406;-4.514;2023-02-15T03:48:26;10.93;81.34
73750;SHT30;62058;48.406;-4.514;2023-02-15T03:50:56;10.88;81.02
73750;SHT30;62058;48.406;-4.514;2023-02-15T03:53:42;10.90;80.51
73750;SHT30;62058;48.406;-4.514;2023-02-15T03:56:09;10.88;79.97
73750;SHT30;62058;48.406;-4.514;2023-02-15T03:58:34;10.88;80.23
73750;SHT30;62058;48.406;-4.514;2023-02-15T04:04:18;10.84;81.12
73750;SHT30;62058;48.406;-4.514;2023-02-15T04:06:44;10.84;80.34
73750;SHT30;62058;48.406;-4.514;2023-02-15T04:09:09;10.82;80.07
73750;SHT30;62058;48.406;-4.514;2023-02-15T04:11:53;10.84;81.86
73750;SHT30;62058;48.406;-4.514;2023-02-15T04:14:18;10.83;81.78
73750;SHT30;62058;48.406;-4.514;2023-02-15T04:17:06;10.84;81.07
73750;SHT30;62058;48.406;-4.514;2023-02-15T04:19:31;10.86;81.92
73750;SHT30;62058;48.406;-4.514;2023-02-15T04:22:15;10.86;79.93
73750;SHT30;62058;48.406;-4.514;2023-02-15T04:24:59;10.82;80.38
73750;SHT30;62058;48.406;-4.514;2023-02-15T04:27:38;10.80;81.50
73750;SHT30;62058;48.406;-4.514;2023-02-15T04:30:05;10.82;80.20
73750;SHT30;62058;48.406;-4.514;2023-02-15T04:32:31;10.80;81.41
73750;SHT30;62058;48.406;-4.514;2023-02-15T04:34:56;10.80;81.51
73750;SHT30;62058;48.406;-4.514;2023-02-15T04:37:21;10.80;80.29
73750;SHT30;62058;48.406;-4.514;2023-02-15T04:39:47;10.77;81.09
73750;SHT30;62058;48.406;-4.514;2023-02-15T04:42:12;10.79;81.86
73750;SHT30;62058;48.406;-4.514;2023-02-15T04:44:37;10.77;81.12
73750;SHT30;62058;48.406;-4.514;2023-02-15T04:47:03;10.77;82.12
73750;SHT30;62058;48.406;-4.514;2023-02-15T04:49:28;10.76;81.11
73750;SHT30;62058;48.406;-4.514;2023-02-15T04:51:54;10.77;81.10
73750;SHT30;62058;48.406;-4.514;2023-02-15T04:54:19;10.73;81.83
73750;SHT30;62058;48.406;-4.514;2023-02-15T04:56:44;10.73;81.20
73750;SHT30;62058;48.406;-4.514;2023-02-15T04:59:10;10.71;82.26
73750;SHT30;62058;48.406;-4.514;2023-02-15T05:01:36;10.68;82.31
73750;SHT30;62058;48.406;-4.514;2023-02-15T05:04:02;10.69;82.72
73750;SHT30;62058;48.406;-4.514;2023-02-15T05:06:28;10.66;82.57
73750;SHT30;62058;48.406;-4.514;2023-02-15T05:08:53;10.63;82.89
73750;SHT30;62058;48.406;-4.514;2023-02-15T05:11:19;10.61;82.02
73750;SHT30;62058;48.406;-4.514;2023-02-15T05:13:44;10.61;82.90
73750;SHT30;62058;48.406;-4.514;2023-02-15T05:16:09;10.62;81.14
73750;SHT30;62058;48.406;-4.514;2023-02-15T05:18:35;10.59;83.06
73750;SHT30;62058;48.406;-4.514;2023-02-15T05:21:00;10.59;83.34
73750;SHT30;62058;48.406;-4.514;2023-02-15T05:23:26;10.55;82.02
73750;SHT30;62058;48.406;-4.514;2023-02-15T05:25:51;10.55;82.86
73750;SHT30;62058;48.406;-4.514;2023-02-15T05:28:37;10.55;83.36
73750;SHT30;62058;48.406;-4.514;2023-02-15T05:31:16;10.52;82.51
73750;SHT30;62058;48.406;-4.514;2023-02-15T05:33:44;10.52;82.41
73750;SHT30;62058;48.406;-4.514;2023-02-15T05:36:10;10.55;82.85
73750;SHT30;62058;48.406;-4.514;2023-02-15T05:38:36;10.51;82.65
73750;SHT30;62058;48.406;-4.514;2023-02-15T05:41:05;10.52;81.63
73750;SHT30;62058;48.406;-4.514;2023-02-15T05:43:31;10.55;81.49
73750;SHT30;62058;48.406;-4.514;2023-02-15T05:45:57;10.52;82.97
73750;SHT30;62058;48.406;-4.514;2023-02-15T05:48:24;10.49;81.36
73750;SHT30;62058;48.406;-4.514;2023-02-15T05:51:05;10.49;82.73
73750;SHT30;62058;48.406;-4.514;2023-02-15T05:53:32;10.46;85.04
73750;SHT30;62058;48.406;-4.514;2023-02-15T05:55:58;10.45;83.80
73750;SHT30;62058;48.406;-4.514;2023-02-15T05:58:29;10.46;83.55
73750;SHT30;62058;48.406;-4.514;2023-02-15T06:00:55;10.46;82.27
73750;SHT30;62058;48.406;-4.514;2023-02-15T06:03:21;10.46;83.21
73750;SHT30;62058;48.406;-4.514;2023-02-15T06:05:47;10.48;84.28
73750;SHT30;62058;48.406;-4.514;2023-02-15T06:08:12;10.46;84.12
73750;SHT30;62058;48.406;-4.514;2023-02-15T06:10:38;10.44;84.36
73750;SHT30;62058;48.406;-4.514;2023-02-15T06:13:05;10.44;84.39
73750;SHT30;62058;48.406;-4.514;2023-02-15T06:15:31;10.42;83.87
73750;SHT30;62058;48.406;-4.514;2023-02-15T06:17:56;10.41;83.83
73750;SHT30;62058;48.406;-4.514;2023-02-15T06:20:21;10.39;83.56
73750;SHT30;62058;48.406;-4.514;2023-02-15T06:22:47;10.41;83.75
73750;SHT30;62058;48.406;-4.514;2023-02-15T06:25:12;10.38;84.16
73750;SHT30;62058;48.406;-4.514;2023-02-15T06:27:41;10.37;84.71
73750;SHT30;62058;48.406;-4.514;2023-02-15T06:30:07;10.38;84.23
73750;SHT30;62058;48.406;-4.514;2023-02-15T06:32:33;10.38;83.69
73750;SHT30;62058;48.406;-4.514;2023-02-15T06:34:58;10.37;83.60
73750;SHT30;62058;48.406;-4.514;2023-02-15T06:37:23;10.38;83.64
73750;SHT30;62058;48.406;-4.514;2023-02-15T06:39:49;10.35;84.04
73750;SHT30;62058;48.406;-4.514;2023-02-15T06:42:14;10.34;85.00
73750;SHT30;62058;48.406;-4.514;2023-02-15T06:44:40;10.34;84.43
73750;SHT30;62058;48.406;-4.514;2023-02-15T06:47:05;10.29;84.41
73750;SHT30;62058;48.406;-4.514;2023-02-15T06:49:30;10.28;84.54
73750;SHT30;62058;48.406;-4.514;2023-02-15T06:51:56;10.27;84.32
73750;SHT30;62058;48.406;-4.514;2023-02-15T06:54:21;10.29;84.24
73750;SHT30;62058;48.406;-4.514;2023-02-15T06:56:49;10.28;83.72
73750;SHT30;62058;48.406;-4.514;2023-02-15T06:59:15;10.27;83.49
73750;SHT30;62058;48.406;-4.514;2023-02-15T07:01:40;10.27;83.68
73750;SHT30;62058;48.406;-4.514;2023-02-15T07:04:05;10.27;83.43
73750;SHT30;62058;48.406;-4.514;2023-02-15T07:06:34;10.19;84.22
73750;SHT30;62058;48.406;-4.514;2023-02-15T07:09:00;10.21;84.79
73750;SHT30;62058;48.406;-4.514;2023-02-15T07:11:25;10.21;82.74
73750;SHT30;62058;48.406;-4.514;2023-02-15T07:14:09;10.22;84.53
73750;SHT30;62058;48.406;-4.514;2023-02-15T07:16:35;10.22;84.48
73750;SHT30;62058;48.406;-4.514;2023-02-15T07:19:00;10.18;84.35
73750;SHT30;62058;48.406;-4.514;2023-02-15T07:21:25;10.18;85.11
73750;SHT30;62058;48.406;-4.514;2023-02-15T07:23:51;10.19;84.62
73750;SHT30;62058;48.406;-4.514;2023-02-15T07:26:16;10.22;84.34
73750;SHT30;62058;48.406;-4.514;2023-02-15T07:28:42;10.22;84.26
73750;SHT30;62058;48.406;-4.514;2023-02-15T07:31:07;10.25;84.62
73750;SHT30;62058;48.406;-4.514;2023-02-15T07:33:34;10.25;84.59
73750;SHT30;62058;48.406;-4.514;2023-02-15T07:36:02;10.28;83.50
73750;SHT30;62058;48.406;-4.514;2023-02-15T07:38:33;10.31;82.88
73750;SHT30;62058;48.406;-4.514;2023-02-15T07:41:04;10.31;83.47
73750;SHT30;62058;48.406;-4.514;2023-02-15T07:43:33;10.34;83.08
73750;SHT30;62058;48.406;-4.514;2023-02-15T07:46:03;10.35;83.78
73750;SHT30;62058;48.406;-4.514;2023-02-15T07:48:29;10.38;83.54
73750;SHT30;62058;48.406;-4.514;2023-02-15T07:50:59;10.45;82.53
73750;SHT30;62058;48.406;-4.514;2023-02-15T07:53:24;10.48;83.27
73750;SHT30;62058;48.406;-4.514;2023-02-15T07:55:50;10.53;82.87
73750;SHT30;62058;48.406;-4.514;2023-02-15T07:58:15;10.56;83.76
73750;SHT30;62058;48.406;-4.514;2023-02-15T08:00:40;10.61;82.86
73750;SHT30;62058;48.406;-4.514;2023-02-15T08:03:27;10.63;83.24
73750;SHT30;62058;48.406;-4.514;2023-02-15T08:05:59;10.71;83.31
73750;SHT30;62058;48.406;-4.514;2023-02-15T08:08:26;10.73;83.39
73750;SHT30;62058;48.406;-4.514;2023-02-15T08:11:06;10.77;82.18
73750;SHT30;62058;48.406;-4.514;2023-02-15T08:14:09;10.89;82.00
73750;SHT30;62058;48.406;-4.514;2023-02-15T08:19:16;10.95;82.09
73750;SHT30;62058;48.406;-4.514;2023-02-15T08:22:06;11.04;81.35
73750;SHT30;62058;48.406;-4.514;2023-02-15T08:24:34;11.07;82.50
73750;SHT30;62058;48.406;-4.514;2023-02-15T08:27:03;11.16;81.66
73750;SHT30;62058;48.406;-4.514;2023-02-15T08:29:30;11.22;81.19
73750;SHT30;62058;48.406;-4.514;2023-02-15T08:31:58;11.27;81.81
73750;SHT30;62058;48.406;-4.514;2023-02-15T08:34:27;11.33;81.24
73750;SHT30;62058;48.406;-4.514;2023-02-15T08:36:53;11.37;81.63
73750;SHT30;62058;48.406;-4.514;2023-02-15T08:39:18;11.44;81.15
73750;SHT30;62058;48.406;-4.514;2023-02-15T08:41:46;11.50;81.63
73750;SHT30;62058;48.406;-4.514;2023-02-15T08:44:11;11.55;81.12
73750;SHT30;62058;48.406;-4.514;2023-02-15T08:46:42;11.63;81.11
73750;SHT30;62058;48.406;-4.514;2023-02-15T08:49:08;11.70;80.82
73750;SHT30;62058;48.406;-4.514;2023-02-15T08:51:36;11.77;80.58
73750;SHT30;62058;48.406;-4.514;2023-02-15T08:54:04;11.82;80.46
73750;SHT30;62058;48.406;-4.514;2023-02-15T08:56:36;11.88;80.43
73750;SHT30;62058;48.406;-4.514;2023-02-15T08:59:02;11.92;80.12
73750;SHT30;62058;48.406;-4.514;2023-02-15T09:01:30;11.96;80.01
73750;SHT30;62058;48.406;-4.514;2023-02-15T09:03:58;12.02;79.96
73750;SHT30;62058;48.406;-4.514;2023-02-15T09:06:23;12.06;80.13
73750;SHT30;62058;48.406;-4.514;2023-02-15T09:08:50;12.14;79.84
73750;SHT30;62058;48.406;-4.514;2023-02-15T09:11:21;12.16;79.89
73750;SHT30;62058;48.406;-4.514;2023-02-15T09:13:59;12.19;79.84
73750;SHT30;62058;48.406;-4.514;2023-02-15T09:16:26;12.25;79.21
73750;SHT30;62058;48.406;-4.514;2023-02-15T09:18:52;12.28;79.48
73750;SHT30;62058;48.406;-4.514;2023-02-15T09:21:21;12.35;79.36
73750;SHT30;62058;48.406;-4.514;2023-02-15T09:23:48;12.37;78.88
73750;SHT30;62058;48.406;-4.514;2023-02-15T09:26:17;12.43;79.03
73750;SHT30;62058;48.406;-4.514;2023-02-15T09:28:43;12.46;78.76
73750;SHT30;62058;48.406;-4.514;2023-02-15T09:31:26;12.52;78.52
73750;SHT30;62058;48.406;-4.514;2023-02-15T09:33:53;12.53;78.67
73750;SHT30;62058;48.406;-4.514;2023-02-15T09:36:29;12.43;78.99
73750;SHT30;62058;48.406;-4.514;2023-02-15T09:55:37;12.91;77.63
73750;SHT30;62058;48.406;-4.514;2023-02-15T10:03:57;12.97;77.39
73750;SHT30;62058;48.406;-4.514;2023-02-15T10:12:22;13.15;77.20
73750;SHT30;62058;48.406;-4.514;2023-02-15T10:15:27;13.20;77.02
73750;SHT30;62058;48.406;-4.514;2023-02-15T10:26:53;13.48;76.39
73750;SHT30;62058;48.406;-4.514;2023-02-15T10:29:38;13.59;76.12
73750;SHT30;62058;48.406;-4.514;2023-02-15T10:35:07;13.78;75.57
73750;SHT30;62058;48.406;-4.514;2023-02-15T10:44:01;14.10;74.70
73750;SHT30;62058;48.406;-4.514;2023-02-15T10:48:47;14.44;74.37
73750;SHT30;62058;48.406;-4.514;2023-02-15T10:51:27;14.68;73.97
73750;SHT30;62058;48.406;-4.514;2023-02-15T10:56:45;14.84;72.92
73750;SHT30;62058;48.406;-4.514;2023-02-15T10:59:26;14.91;73.30
73750;SHT30;62058;48.406;-4.514;2023-02-15T11:02:12;15.07;73.11
73750;SHT30;62058;48.406;-4.514;2023-02-15T11:12:40;15.58;71.83
73750;SHT30;62058;48.406;-4.514;2023-02-15T11:15:20;15.73;71.19
73750;SHT30;62058;48.406;-4.514;2023-02-15T11:17:57;15.97;71.06
73750;SHT30;62058;48.406;-4.514;2023-02-15T11:20:35;16.11;70.82
73750;SHT30;62058;48.406;-4.514;2023-02-15T11:23:02;16.17;69.24
73750;SHT30;62058;48.406;-4.514;2023-02-15T11:25:32;16.11;68.17
73750;SHT30;62058;48.406;-4.514;2023-02-15T11:28:00;16.14;68.97
73750;SHT30;62058;48.406;-4.514;2023-02-15T11:30:42;15.93;69.85
73750;SHT30;62058;48.406;-4.514;2023-02-15T11:36:19;15.96;68.40
73750;SHT30;62058;48.406;-4.514;2023-02-15T11:38:49;15.97;69.22
73750;SHT30;62058;48.406;-4.514;2023-02-15T11:41:21;16.10;68.36
73750;SHT30;62058;48.406;-4.514;2023-02-15T11:44:29;16.16;68.60
73750;SHT30;62058;48.406;-4.514;2023-02-15T11:46:58;16.30;68.17
73750;SHT30;62058;48.406;-4.514;2023-02-15T11:49:29;16.33;66.56
73750;SHT30;62058;48.406;-4.514;2023-02-15T11:51:56;16.55;67.78
73750;SHT30;62058;48.406;-4.514;2023-02-15T11:54:31;16.86;67.30
73750;SHT30;62058;48.406;-4.514;2023-02-15T11:57:26;16.95;66.23
73750;SHT30;62058;48.406;-4.514;2023-02-15T12:00:22;16.92;66.53
73750;SHT30;62058;48.406;-4.514;2023-02-15T12:02:52;17.09;67.07
73750;SHT30;62058;48.406;-4.514;2023-02-15T12:05:21;17.29;65.74
73750;SHT30;62058;48.406;-4.514;2023-02-15T12:08:01;17.42;66.19
73750;SHT30;62058;48.406;-4.514;2023-02-15T12:10:33;17.53;65.55
73750;SHT30;62058;48.406;-4.514;2023-02-15T12:13:18;17.69;64.74
73750;SHT30;62058;48.406;-4.514;2023-02-15T12:15:46;17.76;63.90
73750;SHT30;62058;48.406;-4.514;2023-02-15T12:21:30;17.88;64.45
73750;SHT30;62058;48.406;-4.514;2023-02-15T12:27:13;17.86;62.89
73750;SHT30;62058;48.406;-4.514;2023-02-15T12:29:42;17.76;64.20
73750;SHT30;62058;48.406;-4.514;2023-02-15T12:32:16;17.90;65.14
73750;SHT30;62058;48.406;-4.514;2023-02-15T12:34:43;18.04;64.59
73750;SHT30;62058;48.406;-4.514;2023-02-15T12:37:21;18.18;62.19
73750;SHT30;62058;48.406;-4.514;2023-02-15T12:39:53;18.28;63.63
73750;SHT30;62058;48.406;-4.514;2023-02-15T12:42:19;18.51;64.67
73750;SHT30;62058;48.406;-4.514;2023-02-15T12:44:55;18.92;63.99
73750;SHT30;62058;48.406;-4.514;2023-02-15T12:47:21;19.02;61.15
73750;SHT30;62058;48.406;-4.514;2023-02-15T12:50:24;19.00;59.49
73750;SHT30;62058;48.406;-4.514;2023-02-15T12:53:12;19.10;59.23
73750;SHT30;62058;48.406;-4.514;2023-02-15T12:55:38;19.28;58.26
73750;SHT30;62058;48.406;-4.514;2023-02-15T12:58:12;19.54;54.97
73750;SHT30;62058;48.406;-4.514;2023-02-15T13:00:39;19.84;55.35
73750;SHT30;62058;48.406;-4.514;2023-02-15T13:03:14;19.84;55.22
73750;SHT30;62058;48.406;-4.514;2023-02-15T13:05:43;19.81;55.50
73750;SHT30;62058;48.406;-4.514;2023-02-15T13:08:17;19.78;55.77
73750;SHT30;62058;48.406;-4.514;2023-02-15T13:13:26;19.19;57.57
73750;SHT30;62058;48.406;-4.514;2023-02-15T13:15:56;19.35;58.68
73750;SHT30;62058;48.406;-4.514;2023-02-15T13:18:30;19.64;58.70
73750;SHT30;62058;48.406;-4.514;2023-02-15T13:20:56;19.84;57.27
73750;SHT30;62058;48.406;-4.514;2023-02-15T13:23:29;20.04;56.90
73750;SHT30;62058;48.406;-4.514;2023-02-15T13:25:58;20.33;55.36
73750;SHT30;62058;48.406;-4.514;2023-02-15T13:28:36;20.33;55.67
73750;SHT30;62058;48.406;-4.514;2023-02-15T13:31:03;20.40;53.82
73750;SHT30;62058;48.406;-4.514;2023-02-15T13:33:34;20.75;52.82
73750;SHT30;62058;48.406;-4.514;2023-02-15T13:36:23;21.30;51.46
73750;SHT30;62058;48.406;-4.514;2023-02-15T13:41:32;21.63;50.81
73750;SHT30;62058;48.406;-4.514;2023-02-15T13:44:15;21.72;48.87
73750;SHT30;62058;48.406;-4.514;2023-02-15T13:47:12;22.44;48.90
73750;SHT30;62058;48.406;-4.514;2023-02-15T13:53:18;24.06;46.86
73750;SHT30;62058;48.406;-4.514;2023-02-15T13:56:10;23.82;46.09
73750;SHT30;62058;48.406;-4.514;2023-02-15T13:58:58;23.54;47.09
73750;SHT30;62058;48.406;-4.514;2023-02-15T14:01:37;23.04;48.44
73750;SHT30;62058;48.406;-4.514;2023-02-15T14:07:07;21.92;48.77
73750;SHT30;62058;48.406;-4.514;2023-02-15T14:15:15;21.42;50.78
73750;SHT30;62058;48.406;-4.514;2023-02-15T14:20:47;20.89;51.93
73750;SHT30;62058;48.406;-4.514;2023-02-15T14:26:01;20.09;52.67
73750;SHT30;62058;48.406;-4.514;2023-02-15T14:31:09;19.44;54.78
73750;SHT30;62058;48.406;-4.514;2023-02-15T14:33:39;19.24;55.49
73750;SHT30;62058;48.406;-4.514;2023-02-15T14:36:07;19.02;56.36
73750;SHT30;62058;48.406;-4.514;2023-02-15T14:41:31;18.29;58.87
73750;SHT30;62058;48.406;-4.514;2023-02-15T14:47:04;18.15;59.32
73750;SHT30;62058;48.406;-4.514;2023-02-15T14:49:33;17.90;59.86
73750;SHT30;62058;48.406;-4.514;2023-02-15T14:52:05;17.77;60.28
73750;SHT30;62058;48.406;-4.514;2023-02-15T14:59:46;17.86;60.29
73750;SHT30;62058;48.406;-4.514;2023-02-15T15:02:21;17.71;60.72
73750;SHT30;62058;48.406;-4.514;2023-02-15T15:07:23;17.29;61.99
73750;SHT30;62058;48.406;-4.514;2023-02-15T15:10:06;17.29;62.47
73750;SHT30;62058;48.406;-4.514;2023-02-15T15:12:41;17.47;61.87
73750;SHT30;62058;48.406;-4.514;2023-02-15T15:15:10;17.50;62.20
73750;SHT30;62058;48.406;-4.514;2023-02-15T15:22:33;17.26;62.88
73750;SHT30;62058;48.406;-4.514;2023-02-15T15:25:01;17.32;62.75
73750;SHT30;62058;48.406;-4.514;2023-02-15T15:33:12;17.19;63.53
73750;SHT30;62058;48.406;-4.514;2023-02-15T15:38:56;17.06;65.09
73750;SHT30;62058;48.406;-4.514;2023-02-15T15:41:41;16.85;65.58
73750;SHT30;62058;48.406;-4.514;2023-02-15T15:47:18;16.75;65.50
73750;SHT30;62058;48.406;-4.514;2023-02-15T15:49:47;16.72;66.94
73750;SHT30;62058;48.406;-4.514;2023-02-15T15:52:18;16.51;68.16
73750;SHT30;62058;48.406;-4.514;2023-02-15T15:54:47;16.54;68.02
73750;SHT30;62058;48.406;-4.514;2023-02-15T15:57:20;16.50;68.94
73750;SHT30;62058;48.406;-4.514;2023-02-15T15:59:47;16.54;67.17
73750;SHT30;62058;48.406;-4.514;2023-02-15T16:02:15;16.45;68.80
73750;SHT30;62058;48.406;-4.514;2023-02-15T16:04:45;16.38;69.03
73750;SHT30;62058;48.406;-4.514;2023-02-15T16:10:03;16.47;67.99
73750;SHT30;62058;48.406;-4.514;2023-02-15T16:12:38;16.35;69.50
73750;SHT30;62058;48.406;-4.514;2023-02-15T16:15:15;16.34;69.48
73750;SHT30;62058;48.406;-4.514;2023-02-15T16:17:43;16.24;70.06
73750;SHT30;62058;48.406;-4.514;2023-02-15T16:20:20;16.23;68.98
73750;SHT30;62058;48.406;-4.514;2023-02-15T16:22:48;16.24;69.09
73750;SHT30;62058;48.406;-4.514;2023-02-15T16:28:06;16.04;70.01
73750;SHT30;62058;48.406;-4.514;2023-02-15T16:30:34;16.01;70.59
73750;SHT30;62058;48.406;-4.514;2023-02-15T16:33:07;15.90;72.87
73750;SHT30;62058;48.406;-4.514;2023-02-15T16:35:34;15.80;72.83
73750;SHT30;62058;48.406;-4.514;2023-02-15T16:38:01;15.62;73.83
73750;SHT30;62058;48.406;-4.514;2023-02-15T16:40:38;15.46;74.84
73750;SHT30;62058;48.406;-4.514;2023-02-15T16:43:13;15.45;74.76
73750;SHT30;62058;48.406;-4.514;2023-02-15T16:45:39;15.49;74.99
73750;SHT30;62058;48.406;-4.514;2023-02-15T16:48:13;15.45;74.66
73750;SHT30;62058;48.406;-4.514;2023-02-15T16:50:40;15.40;75.67
73750;SHT30;62058;48.406;-4.514;2023-02-15T16:53:21;15.46;75.51
73750;SHT30;62058;48.406;-4.514;2023-02-15T16:55:50;15.35;76.08
73750;SHT30;62058;48.406;-4.514;2023-02-15T16:58:17;15.27;74.80
73750;SHT30;62058;48.406;-4.514;2023-02-15T17:00:45;15.28;74.60
73750;SHT30;62058;48.406;-4.514;2023-02-15T17:08:18;15.11;75.00
73750;SHT30;62058;48.406;-4.514;2023-02-15T17:11:01;15.11;76.21
73750;SHT30;62058;48.406;-4.514;2023-02-15T17:13:28;15.01;76.51
73750;SHT30;62058;48.406;-4.514;2023-02-15T17:20:59;14.83;77.62
73750;SHT30;62058;48.406;-4.514;2023-02-15T17:23:38;14.84;76.22
73750;SHT30;62058;48.406;-4.514;2023-02-15T17:26:34;14.81;77.33
73750;SHT30;62058;48.406;-4.514;2023-02-15T17:29:17;14.78;78.13
73750;SHT30;62058;48.406;-4.514;2023-02-15T17:31:48;14.71;79.50
73750;SHT30;62058;48.406;-4.514;2023-02-15T17:34:49;14.67;77.60
73750;SHT30;62058;48.406;-4.514;2023-02-15T17:37:29;14.66;78.10
73750;SHT30;62058;48.406;-4.514;2023-02-15T17:39:56;14.50;81.56
73750;SHT30;62058;48.406;-4.514;2023-02-15T17:42:22;14.50;80.34
73750;SHT30;62058;48.406;-4.514;2023-02-15T17:44:48;14.46;81.34
73750;SHT30;62058;48.406;-4.514;2023-02-15T17:47:17;14.44;81.27
73750;SHT30;62058;48.406;-4.514;2023-02-15T17:49:43;14.38;82.56
73750;SHT30;62058;48.406;-4.514;2023-02-15T17:52:12;14.36;80.91
73750;SHT30;62058;48.406;-4.514;2023-02-15T17:54:41;14.36;82.69
73750;SHT30;62058;48.406;-4.514;2023-02-15T17:57:26;14.30;80.78
73750;SHT30;62058;48.406;-4.514;2023-02-15T17:59:53;14.22;83.16
73750;SHT30;62058;48.406;-4.514;2023-02-15T18:02:37;14.26;80.75
73750;SHT30;62058;48.406;-4.514;2023-02-15T18:05:21;14.26;82.77
73750;SHT30;62058;48.406;-4.514;2023-02-15T18:08:11;14.17;81.99
73750;SHT30;62058;48.406;-4.514;2023-02-15T18:10:56;14.19;82.87
73750;SHT30;62058;48.406;-4.514;2023-02-15T18:13:40;14.14;82.32
73750;SHT30;62058;48.406;-4.514;2023-02-15T18:16:18;14.13;83.92
73750;SHT30;62058;48.406;-4.514;2023-02-15T18:18:44;14.12;83.72
73750;SHT30;62058;48.406;-4.514;2023-02-15T18:21:11;14.17;83.77
73750;SHT30;62058;48.406;-4.514;2023-02-15T18:23:37;14.20;82.09
73750;SHT30;62058;48.406;-4.514;2023-02-15T18:26:02;14.19;82.91
73750;SHT30;62058;48.406;-4.514;2023-02-15T18:28:28;14.20;82.26
73750;SHT30;62058;48.406;-4.514;2023-02-15T18:30:53;14.22;83.62
73750;SHT30;62058;48.406;-4.514;2023-02-15T18:36:00;14.12;83.52
73750;SHT30;62058;48.406;-4.514;2023-02-15T18:38:26;14.13;84.56